createdAt,value
2023-04-10T00:01:36.836Z,98499.45
2023-04-10T00:04:05.477Z,98500.50
2023-04-10T00:06:34.559Z,98494.03
2023-04-10T00:09:02.294Z,98492.39
2023-04-10T00:11:30.176Z,98487.96
2023-04-10T00:13:57.427Z,98485.08
2023-04-10T00:16:25.109Z,98483.23
2023-04-10T00:18:52.425Z,98476.80
2023-04-10T00:21:19.593Z,98476.98
2023-04-10T00:23:46.991Z,98480.02
2023-04-10T00:26:14.610Z,98474.80
2023-04-10T00:28:41.761Z,98471.13
2023-04-10T00:31:09.308Z,98467.19
2023-04-10T00:33:36.957Z,98472.20
2023-04-10T00:36:04.441Z,98475.80
2023-04-10T00:38:32.309Z,98473.69
2023-04-10T00:40:59.515Z,98471.36
2023-04-10T00:43:26.798Z,98472.02
2023-04-10T00:45:54.449Z,98470.19
2023-04-10T00:48:21.596Z,98473.89
2023-04-10T00:50:48.760Z,98474.31
2023-04-10T00:53:17.127Z,98470.63
2023-04-10T00:55:45.327Z,98468.27
2023-04-10T00:58:14.823Z,98468.14
2023-04-10T01:03:22.398Z,98467.20
2023-04-10T01:05:57.051Z,98468.36
2023-04-10T01:08:37.953Z,98467.16
2023-04-10T01:11:14.205Z,98468.42
2023-04-10T01:13:41.157Z,98468.15
2023-04-10T01:16:25.920Z,98470.25
2023-04-10T01:19:45.370Z,98472.30
2023-04-10T01:22:17.126Z,98471.29
2023-04-10T01:25:10.803Z,98474.08
2023-04-10T01:28:00.375Z,98475.52
2023-04-10T01:30:29.341Z,98473.88
2023-04-10T01:33:00.073Z,98471.39
2023-04-10T01:35:30.064Z,98469.90
2023-04-10T01:38:00.213Z,98469.89
2023-04-10T01:40:29.998Z,98465.09
2023-04-10T01:42:59.694Z,98467.36
2023-04-10T01:45:32.159Z,98466.50
2023-04-10T01:47:59.954Z,98464.69
2023-04-10T01:50:29.645Z,98463.15
2023-04-10T01:52:57.967Z,98460.02
2023-04-10T01:55:26.223Z,98460.09
2023-04-10T01:57:55.234Z,98458.39
2023-04-10T02:00:23.297Z,98460.80
2023-04-10T02:02:51.421Z,98464.05
2023-04-10T02:05:19.424Z,98463.65
2023-04-10T02:08:06.282Z,98465.11
2023-04-10T02:10:43.768Z,98463.67
2023-04-10T02:13:13.924Z,98463.79
2023-04-10T02:15:44.987Z,98461.05
2023-04-10T02:18:16.265Z,98458.55
2023-04-10T02:20:44.543Z,98461.39
2023-04-10T02:23:12.469Z,98462.64
2023-04-10T02:25:39.793Z,98464.14
2023-04-10T02:28:08.419Z,98465.75
2023-04-10T02:30:36.681Z,98465.65
2023-04-10T02:33:03.885Z,98469.50
2023-04-10T02:35:31.394Z,98469.96
2023-04-10T02:37:58.670Z,98470.42
2023-04-10T02:40:25.923Z,98468.95
2023-04-10T02:42:53.562Z,98469.27
2023-04-10T02:45:20.909Z,98469.75
2023-04-10T02:47:48.146Z,98467.52
2023-04-10T02:50:15.424Z,98466.67
2023-04-10T02:52:42.850Z,98469.55
2023-04-10T02:55:10.899Z,98469.20
2023-04-10T02:57:38.368Z,98470.81
2023-04-10T03:00:06.551Z,98464.23
2023-04-10T03:02:34.296Z,98468.73
2023-04-10T03:05:02.983Z,98465.45
2023-04-10T03:07:30.518Z,98466.59
2023-04-10T03:09:57.728Z,98466.86
2023-04-10T03:12:25.408Z,98466.92
2023-04-10T03:14:53.353Z,98468.53
2023-04-10T03:17:20.705Z,98469.30
2023-04-10T03:19:47.915Z,98469.77
2023-04-10T03:22:15.374Z,98471.80
2023-04-10T03:24:42.484Z,98470.88
2023-04-10T03:27:09.754Z,98469.83
2023-04-10T03:29:37.647Z,98472.70
2023-04-10T03:32:04.966Z,98470.28
2023-04-10T03:34:32.200Z,98467.07
2023-04-10T03:36:59.754Z,98469.50
2023-04-10T03:39:27.089Z,98468.41
2023-04-10T03:41:54.290Z,98468.96
2023-04-10T03:44:23.407Z,98468.42
2023-04-10T03:46:51.012Z,98467.66
2023-04-10T03:49:18.335Z,98471.80
2023-04-10T03:51:45.972Z,98472.77
2023-04-10T03:54:13.231Z,98473.59
2023-04-10T03:56:40.513Z,98477.53
2023-04-10T03:59:07.578Z,98480.79
2023-04-10T04:01:35.256Z,98484.38
2023-04-10T04:04:02.733Z,98480.89
2023-04-10T04:06:30.637Z,98480.66
2023-04-10T04:08:58.284Z,98477.66
2023-04-10T04:11:25.455Z,98471.94
2023-04-10T04:13:53.457Z,98472.46
2023-04-10T04:16:21.493Z,98470.23
2023-04-10T04:18:48.747Z,98473.48
2023-04-10T04:21:17.064Z,98476.97
2023-04-10T04:23:44.909Z,98475.06
2023-04-10T04:26:12.191Z,98477.11
2023-04-10T04:28:39.858Z,98481.52
2023-04-10T04:31:09.315Z,98479.93
2023-04-10T04:33:36.562Z,98481.15
2023-04-10T04:36:04.541Z,98480.42
2023-04-10T04:38:31.985Z,98480.46
2023-04-10T04:40:59.256Z,98479.95
2023-04-10T04:43:27.388Z,98479.68
2023-04-10T04:45:54.981Z,98483.90
2023-04-10T04:48:22.287Z,98485.80
2023-04-10T04:50:49.824Z,98485.44
2023-04-10T04:53:17.420Z,98488.89
2023-04-10T04:55:44.680Z,98488.05
2023-04-10T04:58:12.257Z,98490.60
2023-04-10T05:00:40.150Z,98491.58
2023-04-10T05:03:07.435Z,98499.25
2023-04-10T05:05:35.239Z,98502.52
2023-04-10T05:08:02.908Z,98506.33
2023-04-10T05:10:30.123Z,98507.40
2023-04-10T05:12:57.459Z,98509.67
2023-04-10T05:15:24.800Z,98510.14
2023-04-10T05:17:53.554Z,98510.48
2023-04-10T05:20:22.633Z,98511.46
2023-04-10T05:22:51.768Z,98511.50
2023-04-10T05:25:19.232Z,98517.04
2023-04-10T05:27:46.831Z,98517.71
2023-04-10T05:30:14.226Z,98520.67
2023-04-10T05:32:41.549Z,98519.85
2023-04-10T05:35:09.507Z,98519.02
2023-04-10T05:37:37.101Z,98524.52
2023-04-10T05:40:04.873Z,98522.89
2023-04-10T05:42:32.520Z,98525.70
2023-04-10T05:45:00.217Z,98524.33
2023-04-10T05:47:27.439Z,98524.02
2023-04-10T05:49:55.060Z,98525.56
2023-04-10T05:52:22.497Z,98525.44
2023-04-10T05:54:49.821Z,98521.73
2023-04-10T05:57:17.398Z,98523.36
2023-04-10T05:59:45.045Z,98522.08
2023-04-10T06:02:12.576Z,98523.80
2023-04-10T06:04:39.944Z,98522.38
2023-04-10T06:07:07.309Z,98522.34
2023-04-10T06:09:34.451Z,98524.14
2023-04-10T06:12:01.813Z,98518.25
2023-04-10T06:14:29.091Z,98518.53
2023-04-10T06:16:56.991Z,98521.36
2023-04-10T06:19:24.667Z,98523.46
2023-04-10T06:21:53.921Z,98522.45
2023-04-10T06:24:22.228Z,98520.34
2023-04-10T06:26:50.000Z,98525.16
2023-04-10T06:29:17.352Z,98524.90
2023-04-10T06:31:45.094Z,98528.77
2023-04-10T06:34:12.659Z,98531.01
2023-04-10T06:36:40.086Z,98532.91
2023-04-10T06:39:07.525Z,98530.54
2023-04-10T06:41:34.978Z,98525.70
2023-04-10T06:44:03.393Z,98524.64
2023-04-10T06:46:31.069Z,98528.69
2023-04-10T06:48:58.959Z,98528.54
2023-04-10T06:51:26.619Z,98527.65
2023-04-10T06:53:54.320Z,98525.48
2023-04-10T06:56:22.173Z,98525.75
2023-04-10T06:58:49.534Z,98530.58
2023-04-10T07:01:18.232Z,98529.77
2023-04-10T07:03:46.116Z,98529.38
2023-04-10T07:06:13.823Z,98522.41
2023-04-10T07:08:41.810Z,98526.02
2023-04-10T07:11:09.428Z,98518.33
2023-04-10T07:13:39.296Z,98518.87
2023-04-10T07:16:08.847Z,98520.71
2023-04-10T07:18:39.224Z,98520.30
2023-04-10T07:21:13.464Z,98521.70
2023-04-10T07:23:41.496Z,98519.95
2023-04-10T07:26:08.769Z,98521.59
2023-04-10T07:28:37.004Z,98525.91
2023-04-10T07:31:04.949Z,98529.20
2023-04-10T07:33:32.405Z,98534.29
2023-04-10T07:36:00.190Z,98533.25
2023-04-10T07:38:28.207Z,98531.81
2023-04-10T07:41:02.012Z,98531.02
2023-04-10T07:43:29.814Z,98527.31
2023-04-10T07:45:57.589Z,98527.11
2023-04-10T07:48:25.526Z,98528.55
2023-04-10T07:50:54.080Z,98534.80
2023-04-10T07:53:21.334Z,98534.70
2023-04-10T07:55:50.707Z,98540.46
2023-04-10T07:58:18.401Z,98541.48
2023-04-10T08:00:46.009Z,98543.79
2023-04-10T08:03:15.439Z,98542.21
2023-04-10T08:05:43.195Z,98544.13
2023-04-10T08:08:10.656Z,98544.02
2023-04-10T08:10:39.666Z,98549.24
2023-04-10T08:13:07.453Z,98548.95
2023-04-10T08:15:35.009Z,98551.94
2023-04-10T08:18:02.408Z,98544.70
2023-04-10T08:20:30.273Z,98538.34
2023-04-10T08:25:45.373Z,98529.04
2023-04-10T08:28:12.593Z,98531.46
2023-04-10T08:30:40.015Z,98527.12
2023-04-10T08:33:07.562Z,98523.41
2023-04-10T08:35:35.024Z,98522.73
2023-04-10T08:38:12.626Z,98524.73
2023-04-10T08:40:42.168Z,98524.23
2023-04-10T08:43:09.375Z,98522.70
2023-04-10T08:45:36.810Z,98524.66
2023-04-10T08:48:07.110Z,98523.92
2023-04-10T08:50:37.462Z,98524.49
2023-04-10T08:53:11.602Z,98522.27
2023-04-10T08:55:40.906Z,98521.25
2023-04-10T08:58:08.925Z,98517.04
2023-04-10T09:00:39.219Z,98524.48
2023-04-10T09:03:12.175Z,98520.23
2023-04-10T09:05:39.680Z,98524.30
2023-04-10T09:08:08.813Z,98525.89
2023-04-10T09:10:36.139Z,98523.01
2023-04-10T09:13:03.473Z,98522.34
2023-04-10T09:15:30.942Z,98521.65
2023-04-10T09:18:00.934Z,98523.48
2023-04-10T09:20:31.627Z,98517.99
2023-04-10T09:22:59.273Z,98516.35
2023-04-10T09:25:36.146Z,98517.68
2023-04-10T09:28:08.740Z,98512.34
2023-04-10T09:30:37.337Z,98514.59
2023-04-10T09:33:27.406Z,98510.44
2023-04-10T09:35:58.369Z,98507.91
2023-04-10T09:38:26.195Z,98510.06
2023-04-10T09:40:54.421Z,98510.77
2023-04-10T09:43:25.186Z,98504.87
2023-04-10T09:45:53.614Z,98505.92
2023-04-10T09:48:22.415Z,98510.42
2023-04-10T09:50:50.050Z,98505.57
2023-04-10T09:53:20.390Z,98498.67
2023-04-10T09:55:49.689Z,98496.61
2023-04-10T09:58:18.261Z,98493.88
2023-04-10T10:00:47.524Z,98489.48
2023-04-10T10:03:16.977Z,98490.30
2023-04-10T10:05:51.408Z,98486.83
2023-04-10T10:08:18.820Z,98489.30
2023-04-10T10:10:55.421Z,98486.30
2023-04-10T10:13:48.767Z,98488.29
2023-04-10T10:16:28.092Z,98484.48
2023-04-10T10:19:13.082Z,98483.63
2023-04-10T10:21:43.393Z,98478.33
2023-04-10T10:24:13.044Z,98481.89
2023-04-10T10:26:40.961Z,98477.05
2023-04-10T10:29:14.200Z,98477.55
2023-04-10T10:31:42.449Z,98476.45
2023-04-10T10:34:10.179Z,98479.84
2023-04-10T10:36:38.686Z,98476.10
2023-04-10T10:39:23.484Z,98471.95
2023-04-10T10:42:02.723Z,98467.66
2023-04-10T10:44:43.528Z,98459.55
2023-04-10T10:47:25.435Z,98454.48
2023-04-10T10:50:01.241Z,98450.55
2023-04-10T10:52:50.312Z,98448.62
2023-04-10T10:55:33.029Z,98452.70
2023-04-10T10:58:05.903Z,98449.13
2023-04-10T11:00:59.830Z,98452.20
2023-04-10T11:03:31.091Z,98450.30
2023-04-10T11:06:04.278Z,98448.86
2023-04-10T11:08:35.006Z,98440.74
2023-04-10T11:11:08.983Z,98440.89
2023-04-10T11:13:39.192Z,98437.87
2023-04-10T11:16:10.489Z,98431.60
2023-04-10T11:18:49.618Z,98429.46
2023-04-10T11:21:22.633Z,98426.89
2023-04-10T11:23:56.710Z,98422.83
2023-04-10T11:26:37.189Z,98418.77
2023-04-10T11:29:20.510Z,98413.58
2023-04-10T11:31:59.603Z,98409.20
2023-04-10T11:34:28.320Z,98407.36
2023-04-10T11:36:56.154Z,98405.23
2023-04-10T11:39:23.465Z,98402.08
2023-04-10T11:41:53.210Z,98396.75
2023-04-10T11:44:32.360Z,98397.67
2023-04-10T11:47:00.080Z,98395.50
2023-04-10T11:49:37.544Z,98394.20
2023-04-10T11:52:05.397Z,98389.63
2023-04-10T11:54:33.030Z,98386.55
2023-04-10T11:57:07.976Z,98383.20
2023-04-10T11:59:35.881Z,98383.30
2023-04-10T12:02:16.881Z,98384.52
2023-04-10T12:04:45.325Z,98379.57
2023-04-10T12:07:13.187Z,98376.38
2023-04-10T12:09:41.157Z,98370.01
2023-04-10T12:12:09.039Z,98366.25
2023-04-10T12:14:42.738Z,98360.11
2023-04-10T12:17:11.746Z,98347.13
2023-04-10T12:19:40.998Z,98343.23
2023-04-10T12:22:09.456Z,98341.62
2023-04-10T12:24:51.224Z,98339.63
2023-04-10T12:27:29.836Z,98337.27
2023-04-10T12:29:59.302Z,98329.33
2023-04-10T12:32:29.649Z,98326.17
2023-04-10T12:34:58.253Z,98326.33
2023-04-10T12:37:46.717Z,98321.30
2023-04-10T12:40:15.328Z,98320.92
2023-04-10T12:42:43.526Z,98319.73
2023-04-10T12:45:14.293Z,98315.99
2023-04-10T12:47:47.641Z,98305.27
2023-04-10T12:50:16.900Z,98306.77
2023-04-10T12:52:46.556Z,98301.46
2023-04-10T12:55:18.723Z,98295.42
2023-04-10T12:57:47.974Z,98291.97
2023-04-10T13:00:17.785Z,98294.14
2023-04-10T13:02:47.013Z,98294.73
2023-04-10T13:05:15.411Z,98292.38
2023-04-10T13:07:43.331Z,98287.91
2023-04-10T13:10:10.861Z,98281.47
2023-04-10T13:12:39.375Z,98279.93
2023-04-10T13:15:08.283Z,98276.20
2023-04-10T13:17:37.671Z,98274.40
2023-04-10T13:20:05.764Z,98265.66
2023-04-10T13:22:32.889Z,98259.78
2023-04-10T13:25:00.235Z,98258.15
2023-04-10T13:27:27.509Z,98257.27
2023-04-10T13:29:56.043Z,98255.79
2023-04-10T13:32:23.897Z,98254.26
2023-04-10T13:34:51.287Z,98249.20
2023-04-10T13:37:18.578Z,98248.83
2023-04-10T13:39:46.023Z,98245.62
2023-04-10T13:42:14.285Z,98234.77
2023-04-10T13:44:44.343Z,98232.88
2023-04-10T13:47:12.158Z,98229.48
2023-04-10T13:49:39.767Z,98227.02
2023-04-10T13:52:07.148Z,98223.78
2023-04-10T13:54:34.926Z,98219.27
2023-04-10T13:57:03.357Z,98216.73
2023-04-10T13:59:31.154Z,98212.33
2023-04-10T14:01:58.901Z,98210.04
2023-04-10T14:04:26.170Z,98203.05
2023-04-10T14:06:58.155Z,98195.98
2023-04-10T14:09:25.568Z,98189.52
2023-04-10T14:11:52.815Z,98192.77
2023-04-10T14:14:20.009Z,98186.46
2023-04-10T14:16:47.677Z,98184.67
2023-04-10T14:19:14.899Z,98182.41
2023-04-10T14:21:44.425Z,98186.95
2023-04-10T14:24:12.364Z,98186.85
2023-04-10T14:26:40.317Z,98186.05
2023-04-10T14:29:09.154Z,98183.64
2023-04-10T14:31:44.196Z,98184.71
2023-04-10T14:34:22.871Z,98187.61
2023-04-10T14:36:50.565Z,98186.55
2023-04-10T14:39:17.857Z,98190.19
2023-04-10T14:41:45.073Z,98189.65
2023-04-10T14:44:12.710Z,98193.00
2023-04-10T14:46:39.920Z,98190.56
2023-04-10T14:49:07.153Z,98193.42
2023-04-10T14:51:34.883Z,98193.52
2023-04-10T14:54:04.775Z,98194.87
2023-04-10T14:56:32.111Z,98189.78
2023-04-10T14:59:00.155Z,98188.83
2023-04-10T15:01:27.592Z,98189.80
2023-04-10T15:03:55.164Z,98188.45
2023-04-10T15:06:23.630Z,98191.80
2023-04-10T15:08:51.348Z,98195.95
2023-04-10T15:11:18.594Z,98202.64
2023-04-10T15:13:47.939Z,98209.88
2023-04-10T15:16:15.236Z,98212.38
2023-04-10T15:18:42.452Z,98207.02
2023-04-10T15:21:10.214Z,98205.55
2023-04-10T15:23:37.497Z,98212.32
2023-04-10T15:26:04.901Z,98212.85
2023-04-10T15:28:32.895Z,98211.02
2023-04-10T15:31:00.232Z,98206.65
2023-04-10T15:33:27.518Z,98206.10
2023-04-10T15:35:55.720Z,98206.68
2023-04-10T15:38:26.615Z,98201.48
2023-04-10T15:40:53.964Z,98197.33
2023-04-10T15:43:21.892Z,98195.96
2023-04-10T15:45:49.213Z,98189.98
2023-04-10T15:48:16.764Z,98190.77
2023-04-10T15:50:44.145Z,98188.91
2023-04-10T15:53:11.401Z,98191.28
2023-04-10T15:55:41.619Z,98188.89
2023-04-10T15:58:08.887Z,98188.63
2023-04-10T16:00:36.391Z,98188.58
2023-04-10T16:03:03.969Z,98187.36
2023-04-10T16:05:31.813Z,98184.21
2023-04-10T16:07:59.105Z,98179.15
2023-04-10T16:10:26.485Z,98178.46
2023-04-10T16:12:54.379Z,98174.20
2023-04-10T16:15:21.675Z,98167.74
2023-04-10T16:17:49.103Z,98162.70
2023-04-10T16:20:16.363Z,98160.27
2023-04-10T16:22:43.664Z,98161.81
2023-04-10T16:25:11.163Z,98163.14
2023-04-10T16:27:38.910Z,98161.02
2023-04-10T16:30:07.002Z,98159.94
2023-04-10T16:32:34.874Z,98157.45
2023-04-10T16:35:02.791Z,98156.98
2023-04-10T16:37:30.123Z,98155.30
2023-04-10T16:39:57.482Z,98158.15
2023-04-10T16:42:24.851Z,98156.91
2023-04-10T16:44:53.031Z,98158.77
2023-04-10T16:47:20.415Z,98158.47
2023-04-10T16:49:48.496Z,98155.75
2023-04-10T16:52:15.841Z,98154.34
2023-04-10T16:54:43.113Z,98154.52
2023-04-10T16:57:11.119Z,98151.48
2023-04-10T16:59:38.602Z,98153.14
2023-04-10T17:02:05.961Z,98154.88
2023-04-10T17:04:33.218Z,98154.65
2023-04-10T17:07:00.977Z,98153.25
2023-04-10T17:09:28.326Z,98152.50
2023-04-10T17:11:56.525Z,98148.91
2023-04-10T17:14:23.790Z,98147.14
2023-04-10T17:16:51.146Z,98149.27
2023-04-10T17:19:18.752Z,98149.27
2023-04-10T17:21:46.558Z,98151.02
2023-04-10T17:24:13.791Z,98149.19
2023-04-10T17:26:41.986Z,98154.00
2023-04-10T17:29:09.276Z,98152.06
2023-04-10T17:31:36.811Z,98154.30
2023-04-10T17:34:04.662Z,98160.19
2023-04-10T17:36:33.075Z,98161.98
2023-04-10T17:39:01.070Z,98167.25
2023-04-10T17:41:28.574Z,98167.52
2023-04-10T17:43:56.455Z,98167.93
2023-04-10T17:46:24.008Z,98169.23
2023-04-10T17:48:51.459Z,98173.08
2023-04-10T17:51:19.269Z,98170.23
2023-04-10T17:53:47.304Z,98170.23
2023-04-10T17:56:22.494Z,98167.55
2023-04-10T17:58:50.136Z,98168.98
2023-04-10T18:01:27.081Z,98168.17
2023-04-10T18:03:54.801Z,98166.75
2023-04-10T18:06:22.420Z,98163.38
2023-04-10T18:08:50.562Z,98166.96
2023-04-10T18:11:17.907Z,98169.52
2023-04-10T18:13:46.523Z,98167.78
2023-04-10T18:16:13.841Z,98166.64
2023-04-10T18:18:42.720Z,98168.92
2023-04-10T18:21:14.004Z,98172.85
2023-04-10T18:23:41.834Z,98174.05
2023-04-10T18:26:09.263Z,98183.30
2023-04-10T18:28:38.285Z,98186.85
2023-04-10T18:31:06.077Z,98195.38
2023-04-10T18:33:35.136Z,98192.33
2023-04-10T18:36:03.867Z,98201.04
2023-04-10T18:38:31.577Z,98210.80
2023-04-10T18:40:58.820Z,98215.01
2023-04-10T18:43:30.271Z,98214.61
2023-04-10T18:45:59.151Z,98211.86
2023-04-10T18:48:26.586Z,98211.34
2023-04-10T18:50:54.413Z,98202.14
2023-04-10T18:53:25.058Z,98202.63
2023-04-10T18:55:54.733Z,98202.58
2023-04-10T18:58:23.289Z,98201.32
2023-04-10T19:00:51.430Z,98197.75
2023-04-10T19:03:19.642Z,98199.02
2023-04-10T19:05:48.873Z,98194.02
2023-04-10T19:08:18.076Z,98192.15
2023-04-10T19:10:46.234Z,98187.21
2023-04-10T19:13:13.977Z,98184.36
2023-04-10T19:15:43.565Z,98177.39
2023-04-10T19:18:13.117Z,98173.77
2023-04-10T19:20:52.274Z,98174.31
2023-04-10T19:23:21.627Z,98170.18
2023-04-10T19:25:54.990Z,98162.96
2023-04-10T19:28:24.543Z,98159.73
2023-04-10T19:30:53.067Z,98156.05
2023-04-10T19:33:21.737Z,98155.94
2023-04-10T19:35:51.559Z,98154.18
2023-04-10T19:38:19.368Z,98153.16
2023-04-10T19:40:48.094Z,98149.20
2023-04-10T19:43:15.324Z,98144.00
2023-04-10T19:45:43.172Z,98146.23
2023-04-10T19:48:11.348Z,98142.59
2023-04-10T19:50:38.881Z,98138.42
2023-04-10T19:53:06.287Z,98135.80
2023-04-10T19:55:35.416Z,98133.21
2023-04-10T19:58:02.746Z,98130.66
2023-04-10T20:00:30.668Z,98127.96
2023-04-10T20:02:59.142Z,98131.86
2023-04-10T20:05:27.127Z,98131.05
2023-04-10T20:07:54.465Z,98126.05
2023-04-10T20:10:22.324Z,98128.77
2023-04-10T20:12:49.530Z,98127.42
2023-04-10T20:15:16.910Z,98121.71
2023-04-10T20:17:44.446Z,98117.68
2023-04-10T20:20:13.628Z,98116.02
2023-04-10T20:22:40.927Z,98109.95
2023-04-10T20:25:09.243Z,98108.95
2023-04-10T20:27:36.321Z,98102.65
2023-04-10T20:30:03.861Z,98098.10
2023-04-10T20:32:31.571Z,98093.66
2023-04-10T20:34:59.264Z,98089.39
2023-04-10T20:37:26.497Z,98087.72
2023-04-10T20:39:53.836Z,98084.58
2023-04-10T20:42:21.420Z,98082.30
2023-04-10T20:44:48.779Z,98078.17
2023-04-10T20:47:16.346Z,98083.08
2023-04-10T20:49:43.890Z,98087.28
2023-04-10T20:52:11.381Z,98086.42
2023-04-10T20:54:39.379Z,98080.46
2023-04-10T20:57:06.704Z,98074.90
2023-04-10T20:59:36.459Z,98075.14
2023-04-10T21:02:04.556Z,98073.77
2023-04-10T21:04:33.400Z,98074.65
2023-04-10T21:07:00.792Z,98073.80
2023-04-10T21:09:28.299Z,98067.38
2023-04-10T21:11:55.869Z,98071.84
2023-04-10T21:14:23.072Z,98072.14
2023-04-10T21:16:50.904Z,98077.11
2023-04-10T21:19:18.613Z,98077.88
2023-04-10T21:21:45.897Z,98080.99
2023-04-10T21:24:13.133Z,98077.34
2023-04-10T21:26:40.673Z,98074.92
2023-04-10T21:29:07.906Z,98071.84
2023-04-10T21:31:36.067Z,98073.48
2023-04-10T21:34:03.992Z,98069.03
2023-04-10T21:36:31.666Z,98066.41
2023-04-10T21:38:58.875Z,98062.18
2023-04-10T21:41:27.591Z,98062.09
2023-04-10T21:43:56.956Z,98057.46
2023-04-10T21:46:24.706Z,98060.03
2023-04-10T21:48:52.158Z,98060.29
2023-04-10T21:51:19.442Z,98060.79
2023-04-10T21:53:47.034Z,98055.17
2023-04-10T21:56:14.465Z,98054.12
2023-04-10T21:58:41.808Z,98057.95
2023-04-10T22:01:09.629Z,98053.95
2023-04-10T22:03:37.322Z,98051.47
2023-04-10T22:06:04.731Z,98047.90
2023-04-10T22:08:32.142Z,98045.02
2023-04-10T22:10:59.328Z,98042.56
2023-04-10T22:13:30.712Z,98040.35
2023-04-10T22:16:02.775Z,98039.19
2023-04-10T22:18:30.604Z,98040.86
2023-04-10T22:20:58.086Z,98036.55
2023-04-10T22:23:25.645Z,98035.48
2023-04-10T22:25:52.818Z,98034.02
2023-04-10T22:28:20.047Z,98030.58
2023-04-10T22:30:47.587Z,98025.77
2023-04-10T22:33:15.983Z,98027.77
2023-04-10T22:35:43.240Z,98024.05
2023-04-10T22:38:10.828Z,98021.10
2023-04-10T22:40:38.176Z,98020.07
2023-04-10T22:43:05.406Z,98021.79
2023-04-10T22:45:32.960Z,98021.10
2023-04-10T22:48:00.372Z,98017.73
2023-04-10T22:50:27.633Z,98017.73
2023-04-10T22:52:55.078Z,98011.88
2023-04-10T22:55:22.619Z,98009.71
2023-04-10T22:57:50.000Z,98005.50
2023-04-10T23:00:17.676Z,98003.70
2023-04-10T23:02:48.364Z,97997.58
2023-04-10T23:05:15.857Z,97996.06
2023-04-10T23:07:43.636Z,97994.34
2023-04-10T23:10:11.037Z,97985.84
2023-04-10T23:12:38.230Z,97983.80
2023-04-10T23:15:07.664Z,97979.53
2023-04-10T23:17:35.013Z,97974.43
2023-04-10T23:20:02.415Z,97970.94
2023-04-10T23:22:30.703Z,97965.91
2023-04-10T23:24:58.437Z,97961.33
2023-04-10T23:27:25.717Z,97959.54
2023-04-10T23:29:53.428Z,97960.17
2023-04-10T23:32:20.644Z,97957.92
2023-04-10T23:34:47.877Z,97954.08
2023-04-10T23:37:15.133Z,97949.80
2023-04-10T23:39:42.350Z,97947.98
2023-04-10T23:42:09.614Z,97946.69
2023-04-10T23:44:37.330Z,97937.33
2023-04-10T23:47:04.662Z,97934.25
2023-04-10T23:49:32.041Z,97927.06
2023-04-10T23:51:59.358Z,97920.92
2023-04-10T23:54:26.679Z,97915.91
2023-04-10T23:56:53.796Z,97913.18
2023-04-10T23:59:21.375Z,97908.71
